Time;durP1;ratioP1;P1;durP2;ratioP2;P2;SDS_P1;SDS_P2;PMS_P1;PMS_P2;Temp;Humidity;BMP_temperature;BMP_pressure;BME280_temperature;BME280_humidity;BME280_pressure;Samples;Min_cycle;Max_cycle;Signal;HPM_P1;HPM_P2
2022/02/10 00:13:27;;;;;;;9.93;6.93;;;11.70;95.60;;;;;;5013016;28;20367;-62
2022/02/10 00:14:53;;;;;;;10.43;6.40;;;11.70;95.50;;;;;;5017213;28;20439;-62
2022/02/10 00:17:47;;;;;;;8.45;6.30;;;11.70;95.50;;;;;;5014191;28;20108;-62
2022/02/10 00:20:36;;;;;;;8.98;6.97;;;11.70;95.50;;;;;;5021936;28;20069;-63
2022/02/10 00:23:12;;;;;;;10.15;6.88;;;11.70;95.50;;;;;;5011777;28;20042;-63
2022/02/10 00:36:45;;;;;;;10.63;7.35;;;11.70;95.50;;;;;;5025084;28;20025;-63
2022/02/10 00:41:55;;;;;;;9.00;6.88;;;11.70;95.50;;;;;;5018654;28;20033;-62
2022/02/10 00:44:20;;;;;;;9.55;6.85;;;11.70;95.50;;;;;;5013221;28;20030;-62
2022/02/10 00:46:46;;;;;;;9.52;7.05;;;11.80;95.50;;;;;;5013041;28;20037;-62
2022/02/10 00:49:11;;;;;;;9.70;6.75;;;11.70;95.40;;;;;;5012963;28;20022;-62
2022/02/10 00:51:37;;;;;;;10.57;7.15;;;11.80;95.40;;;;;;5012825;28;20397;-62
2022/02/10 00:54:02;;;;;;;10.07;7.25;;;11.70;95.40;;;;;;5017125;28;20053;-62
2022/02/10 00:56:28;;;;;;;9.52;6.70;;;11.70;95.40;;;;;;5012378;28;20084;-62
2022/02/10 00:59:25;;;;;;;10.60;7.45;;;11.70;95.40;;;;;;5016556;28;20032;-62
2022/02/10 01:12:54;;;;;;;10.75;7.25;;;11.80;95.40;;;;;;5023229;28;20041;-62
2022/02/10 01:31:48;;;;;;;;;;;11.70;95.30;;;;;;5015128;28;20510;-62
2022/02/10 01:34:14;;;;;;;10.63;6.38;;;11.80;95.40;;;;;;5012655;28;19945;-62
2022/02/10 01:36:39;;;;;;;9.82;6.20;;;11.70;95.30;;;;;;5012163;28;20061;-62
2022/02/10 01:39:06;;;;;;;9.80;7.03;;;11.80;95.30;;;;;;5014691;28;20060;-62
2022/02/10 02:03:46;;;;;;;8.25;6.43;;;11.70;95.30;;;;;;5011483;28;20437;-63
2022/02/10 02:06:21;;;;;;;8.77;6.35;;;11.70;95.30;;;;;;5012013;28;20030;-63
2022/02/10 02:08:47;;;;;;;8.80;6.45;;;11.70;95.30;;;;;;5011774;28;20133;-63
2022/02/10 02:11:13;;;;;;;10.02;7.00;;;11.70;95.30;;;;;;5028277;28;20580;-63
2022/02/10 02:13:38;;;;;;;9.55;6.93;;;11.60;95.30;;;;;;5021981;28;20484;-63
2022/02/10 02:16:04;;;;;;;9.95;6.90;;;11.70;95.40;;;;;;5011699;28;20030;-62
2022/02/10 02:18:30;;;;;;;9.55;6.40;;;11.70;95.40;;;;;;5011570;28;20072;-63
2022/02/10 02:20:57;;;;;;;8.40;5.72;;;11.60;95.40;;;;;;5025601;28;20026;-63
2022/02/10 02:23:25;;;;;;;7.32;5.32;;;11.70;95.40;;;;;;5032361;28;20068;-63
2022/02/10 02:25:57;;;;;;;7.22;5.30;;;11.60;95.30;;;;;;5032848;28;20048;-63
2022/02/10 02:28:24;;;;;;;9.10;6.03;;;11.70;95.30;;;;;;5028881;28;20037;-62
2022/02/10 02:30:55;;;;;;;8.65;5.70;;;11.70;95.30;;;;;;5014340;28;20022;-62
2022/02/10 02:39:16;;;;;;;8.63;5.75;;;11.70;95.30;;;;;;5028128;28;20048;-62
2022/02/10 03:06:40;;;;;;;7.60;5.15;;;11.60;95.50;;;;;;5032433;28;20037;-61
2022/02/10 03:09:09;;;;;;;7.40;5.13;;;11.60;95.30;;;;;;5029045;28;20041;-61
2022/02/10 03:11:36;;;;;;;6.88;4.95;;;11.60;95.30;;;;;;5014481;28;20030;-61
2022/02/10 03:14:08;;;;;;;8.35;5.97;;;11.60;95.30;;;;;;5014277;28;20116;-61
2022/02/10 03:22:37;;;;;;;8.15;5.07;;;11.60;95.30;;;;;;5018608;28;20415;-62
2022/02/10 04:08:29;;;;;;;8.38;5.78;;;11.50;95.30;;;;;;5013225;28;20040;-62
2022/02/10 04:13:43;;;;;;;8.60;5.28;;;11.50;95.80;;;;;;5020179;28;20026;-62
2022/02/10 04:16:15;;;;;;;7.93;5.38;;;11.50;95.40;;;;;;5029520;28;20035;-62
2022/02/10 04:21:34;;;;;;;8.57;5.25;;;11.40;95.40;;;;;;5016192;28;20038;-62
2022/02/10 04:24:19;;;;;;;7.30;4.88;;;11.40;95.40;;;;;;5013277;28;20092;-62
2022/02/10 04:27:06;;;;;;;8.57;5.30;;;11.40;95.40;;;;;;5012898;28;20563;-62
2022/02/10 04:29:53;;;;;;;8.00;5.35;;;11.40;95.40;;;;;;5012398;28;20033;-62
2022/02/10 04:38:02;;;;;;;7.22;5.57;;;11.40;95.40;;;;;;5020093;28;20029;-62
2022/02/10 04:43:33;;;;;;;8.20;5.57;;;11.30;95.40;;;;;;5012935;28;20036;-62
2022/02/10 04:54:39;;;;;;;8.02;4.88;;;11.40;95.40;;;;;;5030009;28;20034;-63
2022/02/10 04:57:11;;;;;;;6.28;4.85;;;11.30;95.30;;;;;;5012145;28;20480;-63
2022/02/10 05:02:56;;;;;;;7.78;5.30;;;11.40;95.30;;;;;;5025544;28;20049;-62
2022/02/10 05:06:03;;;;;;;6.88;5.13;;;11.40;95.30;;;;;;5020649;28;20087;-62
2022/02/10 05:16:33;;;;;;;7.63;4.93;;;11.30;95.30;;;;;;5014313;28;20044;-61
2022/02/10 05:19:25;;;;;;;9.30;5.20;;;11.30;95.30;;;;;;5018337;28;20367;-62
2022/02/10 05:22:18;;;;;;;6.45;4.95;;;11.30;95.30;;;;;;5015267;28;20116;-61
2022/02/10 05:31:22;;;;;;;8.93;5.90;;;11.30;95.30;;;;;;5040612;28;20033;-62
2022/02/10 05:33:20;;;;;;;11.20;6.07;;;11.30;95.20;;;;;;5031468;28;20057;-62
2022/02/10 05:35:54;;;;;;;9.60;5.55;;;11.30;95.30;;;;;;5029782;28;20388;-62
2022/02/10 05:38:30;;;;;;;9.77;5.72;;;11.40;95.30;;;;;;5032035;28;20025;-62
2022/02/10 05:44:03;;;;;;;7.78;5.30;;;11.30;95.30;;;;;;5031119;28;20108;-62
2022/02/10 05:46:54;;;;;;;10.15;5.68;;;11.30;95.30;;;;;;5029211;28;20405;-62
2022/02/10 05:55:16;;;;;;;8.50;5.57;;;11.30;95.30;;;;;;5015678;28;20034;-62
2022/02/10 05:57:51;;;;;;;8.18;6.07;;;11.30;95.30;;;;;;5014724;28;20017;-62
2022/02/10 06:47:38;;;;;;;9.13;5.67;;;11.00;95.30;;;;;;5014931;28;20036;-62
2022/02/10 06:52:24;;;;;;;7.55;5.68;;;11.00;95.30;;;;;;5030780;28;20088;-62
2022/02/10 06:57:49;;;;;;;10.48;5.90;;;11.00;95.30;;;;;;5014680;28;20512;-62
2022/02/10 07:05:41;;;;;;;9.63;6.18;;;11.00;95.30;;;;;;5029594;28;19951;-62
2022/02/10 07:10:56;;;;;;;9.32;5.85;;;11.00;95.30;;;;;;5016423;28;20033;-61
2022/02/10 07:13:50;;;;;;;8.02;6.00;;;11.00;95.30;;;;;;5019408;28;20079;-61
2022/02/10 07:16:49;;;;;;;7.75;5.55;;;11.00;95.30;;;;;;5017269;28;20201;-61
2022/02/10 07:53:47;;;;;;;8.52;6.10;;;11.20;95.30;;;;;;5032072;28;20119;-61
2022/02/10 08:29:52;;;;;;;8.15;5.70;;;11.40;95.20;;;;;;5021679;28;20072;-62
2022/02/10 08:51:11;;;;;;;9.85;5.78;;;11.70;95.10;;;;;;5023216;28;20251;-62
2022/02/10 08:54:23;;;;;;;10.35;6.05;;;11.70;95.00;;;;;;5017879;28;20038;-62
2022/02/10 08:56:32;;;;;;;8.77;6.15;;;11.80;95.10;;;;;;5012393;28;20386;-61
2022/02/10 09:02:10;;;;;;;7.53;5.77;;;11.90;95.10;;;;;;5016294;28;20042;-62
2022/02/10 09:04:49;;;;;;;9.38;6.40;;;12.00;95.00;;;;;;5022708;28;20737;-61
2022/02/10 09:10:19;;;;;;;9.63;6.00;;;12.10;94.90;;;;;;5020401;28;20071;-62
2022/02/10 09:52:09;;;;;;;6.95;5.35;;;12.60;94.70;;;;;;5023077;28;20060;-62
2022/02/10 09:59:33;;;;;;;7.97;5.67;;;12.70;94.60;;;;;;5027636;28;20484;-61
2022/02/10 10:02:16;;;;;;;10.98;5.82;;;12.70;94.60;;;;;;5010118;28;20045;-61
2022/02/10 10:04:58;;;;;;;9.18;5.68;;;12.70;94.50;;;;;;5027988;28;20113;-61
2022/02/10 10:07:31;;;;;;;10.02;5.68;;;12.70;94.50;;;;;;5019897;28;20037;-61
2022/02/10 10:10:36;;;;;;;10.05;6.53;;;12.80;94.50;;;;;;5027524;28;20041;-61
2022/02/10 10:13:31;;;;;;;9.25;6.22;;;12.80;94.50;;;;;;5029083;28;20500;-62
2022/02/10 10:18:47;;;;;;;10.65;6.25;;;12.90;94.40;;;;;;5031302;28;20025;-62
2022/02/10 10:24:17;;;;;;;11.00;6.90;;;13.00;94.30;;;;;;5019132;28;20029;-61
2022/02/10 10:49:35;;;;;;;7.70;5.70;;;13.30;94.10;;;;;;5029493;28;20484;-62
2022/02/10 10:54:38;;;;;;;11.52;5.43;;;13.30;93.90;;;;;;5023845;28;20627;-62
2022/02/10 10:57:13;;;;;;;10.93;6.15;;;13.40;93.90;;;;;;5032567;28;20041;-63
2022/02/10 11:26:24;;;;;;;10.95;5.70;;;13.60;93.40;;;;;;5032744;28;20041;-62
2022/02/10 11:39:16;;;;;;;6.95;5.10;;;13.80;93.00;;;;;;5042108;28;20393;-62
2022/02/10 11:42:27;;;;;;;11.65;5.28;;;13.90;92.90;;;;;;5038624;28;20029;-63
2022/02/10 12:31:11;;;;;;;11.95;5.70;;;13.90;91.80;;;;;;5034113;28;20062;-63
2022/02/10 12:38:57;;;;;;;9.90;5.88;;;14.00;91.60;;;;;;5033394;28;20052;-63
2022/02/10 13:02:42;;;;;;;9.65;6.47;;;13.90;91.50;;;;;;5030707;28;20103;-63
2022/02/10 13:23:27;;;;;;;14.48;7.60;;;13.20;92.10;;;;;;5008838;28;20044;-63
2022/02/10 13:35:02;;;;;;;11.98;7.40;;;13.00;92.30;;;;;;5009369;28;20033;-63
2022/02/10 13:48:44;;;;;;;12.75;8.35;;;12.90;92.40;;;;;;5010195;28;20056;-63
2022/02/10 14:13:01;;;;;;;3.90;1.90;;;11.00;93.80;;;;;;5008939;28;20496;-63
2022/02/10 14:15:41;;;;;;;3.63;1.70;;;10.80;94.30;;;;;;5008584;28;20049;-63
2022/02/10 14:25:58;;;;;;;2.40;1.23;;;10.00;95.00;;;;;;5012892;28;20030;-63
2022/02/10 14:28:26;;;;;;;1.65;1.00;;;9.80;95.10;;;;;;5012490;28;20049;-64
2022/02/10 14:30:52;;;;;;;2.30;1.50;;;9.50;95.30;;;;;;5014681;28;20030;-63
2022/02/10 14:33:24;;;;;;;2.67;1.30;;;9.40;95.30;;;;;;5012706;28;20030;-63
2022/02/10 14:36:05;;;;;;;3.47;1.55;;;9.30;95.70;;;;;;5014744;28;20029;-62
2022/02/10 14:38:59;;;;;;;2.90;1.23;;;9.10;95.80;;;;;;5013611;28;20047;-63
2022/02/10 14:41:53;;;;;;;3.83;1.67;;;9.00;96.20;;;;;;5010770;28;20521;-63
2022/02/10 15:12:23;;;;;;;4.57;2.53;;;8.50;96.70;;;;;;5011838;28;20401;-63
2022/02/10 15:15:27;;;;;;;3.03;2.03;;;8.50;96.70;;;;;;5012042;28;20116;-63
2022/02/10 15:17:34;;;;;;;3.35;2.47;;;8.60;96.80;;;;;;5017500;28;20036;-62
2022/02/10 15:29:25;;;;;;;4.32;2.35;;;8.70;96.80;;;;;;5028930;28;20064;-63
2022/02/10 15:35:59;;;;;;;6.05;3.00;;;8.80;97.00;;;;;;5009988;28;20111;-63
2022/02/10 15:46:06;;;;;;;6.85;2.70;;;8.80;97.10;;;;;;5008096;28;20038;-63
2022/02/10 15:56:45;;;;;;;5.40;2.80;;;9.20;97.00;;;;;;5040602;28;20527;-63
2022/02/10 16:18:41;;;;;;;5.07;2.10;;;9.50;96.70;;;;;;5040304;28;20037;-62
2022/02/10 16:21:07;;;;;;;4.75;2.17;;;9.40;96.60;;;;;;5043076;28;20076;-62
2022/02/10 16:23:33;;;;;;;4.20;2.58;;;9.50;96.70;;;;;;5037468;28;20021;-62
2022/02/10 16:26:17;;;;;;;5.93;2.33;;;9.40;96.70;;;;;;5041721;28;20445;-62
2022/02/10 16:28:44;;;;;;;4.07;2.35;;;9.50;96.70;;;;;;5037803;28;20021;-63
2022/02/10 16:31:12;;;;;;;5.65;2.70;;;9.50;96.70;;;;;;5036845;28;20029;-62
2022/02/10 16:33:41;;;;;;;7.07;2.70;;;9.50;96.70;;;;;;5041140;28;20045;-63
2022/02/10 16:36:09;;;;;;;4.95;2.83;;;9.60;96.80;;;;;;5038529;28;20116;-63
2022/02/10 16:38:34;;;;;;;4.43;2.60;;;9.60;96.70;;;;;;5039945;28;20025;-63
2022/02/10 16:41:00;;;;;;;4.45;2.72;;;9.60;96.60;;;;;;5041731;28;20105;-63
2022/02/10 16:43:26;;;;;;;5.82;3.10;;;9.60;96.60;;;;;;5037727;28;20478;-63
2022/02/10 16:45:54;;;;;;;4.47;2.75;;;9.60;96.60;;;;;;5041503;28;20021;-63
2022/02/10 16:48:19;;;;;;;3.20;2.05;;;9.60;96.50;;;;;;5040728;28;20037;-64
2022/02/10 16:50:45;;;;;;;3.28;2.10;;;9.60;96.50;;;;;;5041557;28;20491;-63
2022/02/10 16:53:17;;;;;;;5.00;2.33;;;9.60;96.50;;;;;;5039264;28;20036;-62
2022/02/10 16:55:54;;;;;;;5.15;2.50;;;9.60;96.50;;;;;;5044610;28;20025;-63
2022/02/10 16:59:07;;;;;;;6.75;2.65;;;9.60;96.50;;;;;;5037509;28;20029;-62
2022/02/10 17:01:33;;;;;;;4.72;2.40;;;9.60;96.60;;;;;;5033918;28;20056;-62
2022/02/10 17:17:32;;;;;;;5.25;2.58;;;9.60;96.70;;;;;;5043635;28;20027;-64
2022/02/10 17:20:23;;;;;;;3.50;2.10;;;9.60;96.70;;;;;;5035953;28;20028;-62
2022/02/10 17:25:34;;;;;;;7.88;2.75;;;9.50;96.80;;;;;;5040320;28;20076;-62
2022/02/10 17:28:03;;;;;;;5.30;2.80;;;9.50;96.80;;;;;;5042159;28;20118;-62
2022/02/10 17:46:39;;;;;;;5.97;3.13;;;9.50;97.00;;;;;;5037829;28;20033;-62
2022/02/10 17:54:24;;;;;;;5.47;2.75;;;9.40;97.10;;;;;;5034477;28;20036;-63
2022/02/10 17:56:50;;;;;;;5.78;2.90;;;9.40;97.20;;;;;;5035269;28;20372;-63
2022/02/10 17:59:17;;;;;;;5.30;3.17;;;9.40;97.20;;;;;;5041271;28;20021;-63
2022/02/10 18:01:44;;;;;;;6.30;3.28;;;9.50;97.30;;;;;;5034056;28;20094;-62
2022/02/10 18:04:12;;;;;;;5.97;3.78;;;9.50;97.30;;;;;;5041007;28;20049;-62
2022/02/10 18:06:43;;;;;;;7.43;4.00;;;9.50;97.30;;;;;;5037781;28;20522;-61
2022/02/10 18:14:31;;;;;;;5.60;3.63;;;9.40;97.20;;;;;;5034782;28;20029;-62
2022/02/10 18:17:05;;;;;;;7.35;3.70;;;9.40;97.20;;;;;;5040266;28;20040;-62
2022/02/10 18:19:37;;;;;;;7.03;3.90;;;9.50;97.20;;;;;;5033466;28;20172;-62
2022/02/10 18:22:28;;;;;;;6.05;3.30;;;9.40;97.20;;;;;;5030547;28;20048;-62
2022/02/10 18:25:02;;;;;;;8.25;3.75;;;9.40;97.20;;;;;;5027402;28;20030;-62
2022/02/10 18:27:38;;;;;;;5.32;3.38;;;9.40;97.30;;;;;;5014081;28;20029;-61
2022/02/10 19:03:19;;;;;;;7.38;3.83;;;9.50;97.20;;;;;;5038841;28;20052;-62
2022/02/10 19:08:07;;;;;;;3.88;2.90;;;9.50;97.00;;;;;;5040821;28;20045;-62
2022/02/10 19:10:35;;;;;;;5.90;2.90;;;9.40;97.00;;;;;;5044775;28;20017;-62
2022/02/10 19:13:01;;;;;;;4.22;2.83;;;9.50;96.90;;;;;;5040060;28;20116;-62
2022/02/10 19:15:34;;;;;;;4.05;2.80;;;9.50;96.90;;;;;;5045954;28;20468;-62
2022/02/10 19:18:05;;;;;;;5.05;2.63;;;9.50;96.90;;;;;;5029804;28;20044;-63
2022/02/10 19:20:32;;;;;;;5.63;2.90;;;9.50;96.90;;;;;;5014144;28;20113;-65
2022/02/10 19:22:58;;;;;;;7.10;3.03;;;9.40;96.80;;;;;;5021978;28;20125;-64
2022/02/10 19:25:24;;;;;;;6.03;2.80;;;9.50;96.80;;;;;;5031715;28;20120;-64
2022/02/10 19:27:50;;;;;;;4.90;2.95;;;9.40;96.80;;;;;;5027188;28;20105;-63
2022/02/10 19:30:18;;;;;;;4.75;2.92;;;9.50;96.80;;;;;;5030421;28;20032;-63
2022/02/10 19:33:00;;;;;;;4.43;2.63;;;9.50;96.70;;;;;;5032041;28;20033;-63
2022/02/10 19:35:28;;;;;;;6.25;2.95;;;9.50;96.60;;;;;;5024841;28;20456;-63
2022/02/10 19:38:01;;;;;;;4.65;2.70;;;9.50;96.50;;;;;;5043339;28;20112;-63
2022/02/10 19:40:34;;;;;;;5.70;3.10;;;9.40;96.40;;;;;;5041194;28;20033;-63
2022/02/10 19:43:00;;;;;;;5.57;3.28;;;9.40;96.40;;;;;;5040017;28;20106;-63
2022/02/10 19:45:25;;;;;;;5.47;2.67;;;9.40;96.30;;;;;;5042094;28;20481;-63
2022/02/10 19:47:51;;;;;;;4.78;2.83;;;9.40;96.30;;;;;;5042232;28;20082;-63
2022/02/10 19:50:24;;;;;;;6.82;2.90;;;9.40;96.30;;;;;;5042877;28;20044;-63
2022/02/10 19:52:52;;;;;;;4.32;2.88;;;9.40;96.30;;;;;;5037800;28;20059;-63
2022/02/10 19:55:20;;;;;;;5.82;3.50;;;9.30;96.20;;;;;;5034463;28;20430;-63
2022/02/10 19:57:48;;;;;;;5.72;3.58;;;9.40;96.30;;;;;;5041724;28;20025;-63
2022/02/10 20:00:18;;;;;;;6.03;3.60;;;9.40;96.30;;;;;;5042761;28;20048;-63
2022/02/10 20:02:44;;;;;;;6.25;3.65;;;9.40;96.30;;;;;;5042546;28;20143;-63
2022/02/10 20:05:10;;;;;;;6.70;4.20;;;9.40;96.30;;;;;;5044240;28;20025;-63
2022/02/10 20:07:41;;;;;;;5.88;3.80;;;9.40;96.30;;;;;;5045214;28;20029;-63
2022/02/10 20:10:08;;;;;;;5.75;3.63;;;9.40;96.30;;;;;;5040895;28;20029;-63
2022/02/10 20:12:35;;;;;;;6.38;3.50;;;9.40;96.40;;;;;;5041454;28;20025;-63
2022/02/10 20:15:01;;;;;;;7.05;3.50;;;9.30;96.40;;;;;;5040468;28;20164;-62
2022/02/10 20:17:26;;;;;;;7.10;3.85;;;9.40;96.50;;;;;;5041152;28;20500;-63
2022/02/10 20:19:53;;;;;;;7.07;3.80;;;9.30;96.50;;;;;;5039071;28;20052;-64
2022/02/10 20:22:19;;;;;;;7.13;3.75;;;9.40;96.60;;;;;;5036303;28;20498;-63
2022/02/10 20:24:44;;;;;;;7.45;3.17;;;9.40;96.70;;;;;;5039745;28;20032;-63
2022/02/10 20:27:10;;;;;;;5.68;4.05;;;9.40;96.70;;;;;;5032081;28;20022;-63
2022/02/10 20:29:35;;;;;;;5.85;3.60;;;9.40;96.80;;;;;;5029535;28;20025;-63
2022/02/10 20:32:02;;;;;;;5.70;3.70;;;9.40;96.80;;;;;;5032376;28;20034;-63
2022/02/10 20:34:30;;;;;;;8.35;4.32;;;9.50;96.90;;;;;;5038866;28;20030;-63
2022/02/10 20:36:58;;;;;;;6.63;4.25;;;9.40;96.90;;;;;;5039357;28;20029;-63
2022/02/10 20:39:27;;;;;;;9.32;4.85;;;9.50;96.90;;;;;;5039728;28;20033;-63
2022/02/10 20:42:00;;;;;;;7.35;4.72;;;9.40;96.90;;;;;;5036590;28;20609;-63
2022/02/10 20:44:27;;;;;;;7.75;5.18;;;9.50;97.00;;;;;;5030088;28;20511;-63
2022/02/10 20:46:52;;;;;;;7.82;5.50;;;9.50;97.00;;;;;;5035840;28;20079;-63
2022/02/10 20:49:18;;;;;;;9.50;5.75;;;9.40;97.00;;;;;;5037466;28;20459;-63
2022/02/10 20:51:49;;;;;;;9.90;5.65;;;9.40;97.00;;;;;;5032435;28;20030;-63
2022/02/10 20:54:15;;;;;;;8.52;5.68;;;9.40;97.10;;;;;;5032527;28;20025;-63
2022/02/10 20:56:41;;;;;;;9.82;6.47;;;9.40;97.10;;;;;;5035443;28;20038;-62
2022/02/10 21:01:51;;;;;;;11.73;6.13;;;9.40;97.10;;;;;;5023389;28;20566;-62
2022/02/10 21:04:16;;;;;;;11.80;6.03;;;9.40;97.10;;;;;;5038098;28;20384;-62
2022/02/10 21:06:57;;;;;;;8.55;5.43;;;9.40;97.10;;;;;;5037233;28;20021;-63
2022/02/10 21:09:37;;;;;;;11.20;6.13;;;9.40;97.10;;;;;;5030972;28;20032;-63
2022/02/10 21:12:06;;;;;;;9.65;6.28;;;9.40;97.10;;;;;;5034915;28;20063;-63
2022/02/10 21:14:31;;;;;;;9.80;6.70;;;9.30;97.30;;;;;;5034023;28;20050;-63
2022/02/10 21:16:58;;;;;;;10.50;6.47;;;9.40;97.10;;;;;;5031632;28;20033;-63
2022/02/10 21:19:25;;;;;;;9.98;6.40;;;9.30;97.20;;;;;;5030134;28;20075;-63
2022/02/10 21:21:51;;;;;;;9.40;6.10;;;9.40;97.20;;;;;;5038300;28;20029;-63
2022/02/10 21:24:24;;;;;;;11.35;6.80;;;9.40;97.20;;;;;;5032423;28;20033;-63
2022/02/10 21:29:34;;;;;;;10.52;6.35;;;9.30;97.20;;;;;;5035348;28;20025;-63
2022/02/10 21:31:59;;;;;;;10.60;5.93;;;9.30;97.20;;;;;;5038348;28;20481;-62
2022/02/10 21:34:30;;;;;;;12.27;7.03;;;9.30;97.30;;;;;;5028557;28;20029;-62
2022/02/10 21:37:03;;;;;;;11.10;6.30;;;9.30;97.30;;;;;;5023273;28;20026;-62
2022/02/10 21:39:46;;;;;;;11.25;6.75;;;9.30;97.20;;;;;;4998597;28;20017;-62
2022/02/10 21:43:16;;;;;;;12.27;7.10;;;9.40;97.20;;;;;;5031175;28;20041;-62
2022/02/10 21:46:40;;;;;;;14.25;6.97;;;9.30;97.20;;;;;;5029621;28;20370;-62
2022/02/10 21:54:30;;;;;;;13.90;7.38;;;9.30;97.20;;;;;;5030869;28;20029;-62
2022/02/10 21:56:35;;;;;;;12.65;6.90;;;9.20;97.10;;;;;;5026343;28;20022;-61
2022/02/10 22:02:47;;;;;;;12.23;6.82;;;9.20;97.00;;;;;;5029749;28;20132;-61
2022/02/10 22:07:32;;;;;;;13.27;6.57;;;9.10;97.00;;;;;;5030796;28;20026;-62
2022/02/10 22:09:43;;;;;;;11.38;5.85;;;9.20;97.00;;;;;;5029657;28;20032;-61
2022/02/10 22:18:16;;;;;;;10.77;3.40;;;8.90;96.70;;;;;;5030828;28;20423;-62
2022/02/10 22:20:32;;;;;;;8.80;3.67;;;8.60;96.40;;;;;;5024373;28;20033;-62
2022/02/10 22:23:04;;;;;;;7.45;3.33;;;8.40;96.60;;;;;;5030875;28;20042;-62
2022/02/10 22:25:31;;;;;;;6.63;3.45;;;8.10;96.80;;;;;;5028326;28;20029;-62
2022/02/10 22:28:02;;;;;;;8.60;3.50;;;7.90;97.00;;;;;;5029877;28;20030;-62
2022/02/10 22:30:41;;;;;;;7.90;3.03;;;7.80;97.00;;;;;;5016694;28;20040;-61
2022/02/10 22:33:26;;;;;;;11.70;4.03;;;7.60;97.20;;;;;;5031121;28;20116;-61
2022/02/10 22:35:52;;;;;;;;;;;7.50;97.20;;;;;;5029565;28;20033;-61
2022/02/10 22:38:21;;;;;;;6.43;2.80;;;7.40;97.50;;;;;;5031993;28;19920;-62
2022/02/10 22:41:02;;;;;;;8.80;2.83;;;7.30;97.60;;;;;;5031570;28;20025;-61
2022/02/10 22:43:28;;;;;;;7.18;3.00;;;7.30;97.80;;;;;;5034906;28;20041;-61
2022/02/10 22:45:54;;;;;;;6.90;2.50;;;7.30;97.80;;;;;;5032910;28;20041;-61
2022/02/10 22:48:19;;;;;;;7.88;3.65;;;7.20;97.90;;;;;;5034898;28;20025;-61
2022/02/10 22:50:45;;;;;;;5.75;3.35;;;7.20;98.00;;;;;;5021010;28;20037;-61
2022/02/10 22:53:10;;;;;;;5.45;2.38;;;7.20;97.80;;;;;;5033508;28;20485;-62
2022/02/10 22:55:37;;;;;;;4.50;2.15;;;7.20;97.90;;;;;;5031943;28;20029;-61
2022/02/10 22:58:03;;;;;;;5.22;1.95;;;7.20;97.80;;;;;;5031085;28;20026;-63
2022/02/10 23:00:46;;;;;;;3.53;1.70;;;7.20;97.50;;;;;;5033072;28;20046;-62
2022/02/10 23:03:14;;;;;;;5.60;2.10;;;7.10;97.60;;;;;;5033083;28;20044;-62
2022/02/10 23:05:39;;;;;;;5.13;2.40;;;7.20;97.70;;;;;;5032447;28;20028;-62
2022/02/10 23:08:05;;;;;;;5.43;2.33;;;7.20;97.80;;;;;;5034326;28;20018;-62
2022/02/10 23:10:45;;;;;;;5.22;2.25;;;7.20;97.80;;;;;;5026083;28;20052;-62
2022/02/10 23:13:13;;;;;;;3.13;1.75;;;7.30;97.80;;;;;;5034226;28;20017;-62
2022/02/10 23:15:40;;;;;;;4.80;1.73;;;7.30;97.70;;;;;;5033049;28;20140;-62
2022/02/10 23:18:11;;;;;;;4.35;1.88;;;7.40;97.70;;;;;;5034060;28;20088;-61
2022/02/10 23:20:37;;;;;;;4.95;2.20;;;7.40;97.70;;;;;;5027923;28;20029;-61
2022/02/10 23:23:05;;;;;;;6.88;2.40;;;7.50;97.80;;;;;;5033617;28;20033;-61
2022/02/10 23:25:32;;;;;;;6.45;2.33;;;7.50;97.80;;;;;;5023010;28;20021;-61
2022/02/10 23:27:59;;;;;;;4.65;2.05;;;7.50;97.90;;;;;;5033356;28;20380;-62
2022/02/10 23:30:27;;;;;;;3.40;2.30;;;7.50;97.90;;;;;;5023224;28;20121;-62
2022/02/10 23:32:57;;;;;;;4.80;2.22;;;7.60;97.90;;;;;;5032622;28;20025;-62
2022/02/10 23:36:08;;;;;;;4.07;2.00;;;7.60;97.90;;;;;;5031617;28;20075;-62
2022/02/10 23:38:08;;;;;;;3.42;1.92;;;7.70;97.90;;;;;;5017394;28;20064;-62
2022/02/10 23:40:54;;;;;;;7.28;2.30;;;7.60;98.00;;;;;;5015589;28;20030;-61
2022/02/10 23:43:19;;;;;;;4.63;2.00;;;7.70;97.80;;;;;;5013548;28;20030;-62
2022/02/10 23:45:45;;;;;;;3.88;1.90;;;7.70;97.80;;;;;;5025987;28;20029;-61
2022/02/10 23:48:12;;;;;;;6.10;2.97;;;7.70;97.70;;;;;;5015842;28;20025;-61
2022/02/10 23:50:38;;;;;;;4.45;2.20;;;7.70;97.70;;;;;;5018916;28;20420;-63
2022/02/10 23:53:03;;;;;;;6.65;2.83;;;7.70;97.70;;;;;;5021538;28;20030;-62
2022/02/10 23:55:34;;;;;;;7.70;3.08;;;7.70;97.60;;;;;;5023712;28;20079;-62
2022/02/10 23:58:30;;;;;;;7.85;3.30;;;7.80;97.60;;;;;;5033323;28;20025;-62
